sensor_id;sensor_type;location;lat;lon;timestamp;P1;durP1;ratioP1;P2;durP2;ratioP2
595;SDS011;19946;49.306;11.350;2022-11-15T00:01:19;17.67;;;17.17;;
595;SDS011;19946;49.306;11.350;2022-11-15T00:04:38;16.23;;;15.83;;
595;SDS011;19946;49.306;11.350;2022-11-15T00:07:58;14.80;;;14.40;;
595;SDS011;19946;49.306;11.350;2022-11-15T00:11:17;14.20;;;13.90;;
595;SDS011;19946;49.306;11.350;2022-11-15T00:14:36;13.90;;;13.60;;
595;SDS011;19946;49.306;11.350;2022-11-15T00:17:55;14.70;;;14.30;;
595;SDS011;19946;49.306;11.350;2022-11-15T00:21:14;14.90;;;14.50;;
595;SDS011;19946;49.306;11.350;2022-11-15T00:24:34;15.97;;;15.57;;
595;SDS011;19946;49.306;11.350;2022-11-15T00:27:56;16.60;;;16.10;;
595;SDS011;19946;49.306;11.350;2022-11-15T00:31:16;16.80;;;16.30;;
595;SDS011;19946;49.306;11.350;2022-11-15T00:34:35;17.10;;;16.60;;
595;SDS011;19946;49.306;11.350;2022-11-15T00:37:54;16.30;;;15.90;;
595;SDS011;19946;49.306;11.350;2022-11-15T00:41:14;16.83;;;16.33;;
595;SDS011;19946;49.306;11.350;2022-11-15T00:44:32;16.23;;;15.83;;
595;SDS011;19946;49.306;11.350;2022-11-15T00:47:52;16.73;;;16.23;;
595;SDS011;19946;49.306;11.350;2022-11-15T00:51:10;16.70;;;16.20;;
595;SDS011;19946;49.306;11.350;2022-11-15T00:54:29;17.20;;;16.70;;
595;SDS011;19946;49.306;11.350;2022-11-15T00:57:48;17.40;;;16.90;;
595;SDS011;19946;49.306;11.350;2022-11-15T01:01:08;17.40;;;16.90;;
595;SDS011;19946;49.306;11.350;2022-11-15T01:04:29;17.00;;;16.50;;
595;SDS011;19946;49.306;11.350;2022-11-15T01:07:51;17.00;;;16.50;;
595;SDS011;19946;49.306;11.350;2022-11-15T01:11:11;17.30;;;16.80;;
595;SDS011;19946;49.306;11.350;2022-11-15T01:14:31;17.30;;;16.80;;
595;SDS011;19946;49.306;11.350;2022-11-15T01:17:50;17.47;;;16.97;;
595;SDS011;19946;49.306;11.350;2022-11-15T01:21:13;17.77;;;17.27;;
595;SDS011;19946;49.306;11.350;2022-11-15T01:24:33;17.47;;;16.97;;
595;SDS011;19946;49.306;11.350;2022-11-15T01:27:52;17.00;;;16.50;;
595;SDS011;19946;49.306;11.350;2022-11-15T01:31:12;17.47;;;16.97;;
595;SDS011;19946;49.306;11.350;2022-11-15T01:34:33;17.87;;;17.37;;
595;SDS011;19946;49.306;11.350;2022-11-15T01:37:52;17.20;;;16.70;;
595;SDS011;19946;49.306;11.350;2022-11-15T01:41:18;17.60;;;17.10;;
595;SDS011;19946;49.306;11.350;2022-11-15T01:44:44;17.33;;;16.83;;
595;SDS011;19946;49.306;11.350;2022-11-15T01:48:08;16.90;;;16.40;;
595;SDS011;19946;49.306;11.350;2022-11-15T01:51:30;17.00;;;16.50;;
595;SDS011;19946;49.306;11.350;2022-11-15T01:54:56;17.27;;;16.77;;
595;SDS011;19946;49.306;11.350;2022-11-15T01:58:19;17.00;;;16.50;;
595;SDS011;19946;49.306;11.350;2022-11-15T02:01:38;16.90;;;16.40;;
595;SDS011;19946;49.306;11.350;2022-11-15T02:04:58;17.73;;;17.23;;
595;SDS011;19946;49.306;11.350;2022-11-15T02:08:17;17.50;;;17.00;;
595;SDS011;19946;49.306;11.350;2022-11-15T02:11:38;17.20;;;16.70;;
595;SDS011;19946;49.306;11.350;2022-11-15T02:15:00;17.30;;;16.80;;
595;SDS011;19946;49.306;11.350;2022-11-15T02:18:27;17.80;;;17.30;;
595;SDS011;19946;49.306;11.350;2022-11-15T02:29:03;17.77;;;17.27;;
595;SDS011;19946;49.306;11.350;2022-11-15T02:32:31;17.60;;;17.10;;
595;SDS011;19946;49.306;11.350;2022-11-15T02:36:02;17.70;;;17.20;;
595;SDS011;19946;49.306;11.350;2022-11-15T02:39:49;17.40;;;16.90;;
595;SDS011;19946;49.306;11.350;2022-11-15T02:43:16;17.80;;;17.30;;
595;SDS011;19946;49.306;11.350;2022-11-15T02:47:06;17.60;;;17.10;;
595;SDS011;19946;49.306;11.350;2022-11-15T02:50:33;17.70;;;17.20;;
595;SDS011;19946;49.306;11.350;2022-11-15T02:53:52;17.40;;;16.90;;
595;SDS011;19946;49.306;11.350;2022-11-15T02:57:14;17.23;;;16.73;;
595;SDS011;19946;49.306;11.350;2022-11-15T03:00:40;17.50;;;17.00;;
595;SDS011;19946;49.306;11.350;2022-11-15T03:04:14;17.50;;;17.00;;
595;SDS011;19946;49.306;11.350;2022-11-15T03:07:50;17.80;;;17.30;;
595;SDS011;19946;49.306;11.350;2022-11-15T03:11:17;16.90;;;16.40;;
595;SDS011;19946;49.306;11.350;2022-11-15T03:14:48;16.80;;;16.30;;
595;SDS011;19946;49.306;11.350;2022-11-15T03:18:16;16.80;;;16.30;;
595;SDS011;19946;49.306;11.350;2022-11-15T03:21:40;16.50;;;16.00;;
595;SDS011;19946;49.306;11.350;2022-11-15T03:25:00;16.83;;;16.33;;
595;SDS011;19946;49.306;11.350;2022-11-15T03:28:25;16.30;;;15.90;;
595;SDS011;19946;49.306;11.350;2022-11-15T03:31:55;16.00;;;15.60;;
595;SDS011;19946;49.306;11.350;2022-11-15T03:35:19;16.60;;;16.10;;
595;SDS011;19946;49.306;11.350;2022-11-15T03:38:40;16.40;;;15.90;;
595;SDS011;19946;49.306;11.350;2022-11-15T03:42:17;16.10;;;15.70;;
595;SDS011;19946;49.306;11.350;2022-11-15T03:45:46;16.10;;;15.70;;
595;SDS011;19946;49.306;11.350;2022-11-15T03:49:22;15.90;;;15.50;;
595;SDS011;19946;49.306;11.350;2022-11-15T03:52:46;16.23;;;15.73;;
595;SDS011;19946;49.306;11.350;2022-11-15T03:56:07;16.10;;;15.70;;
595;SDS011;19946;49.306;11.350;2022-11-15T03:59:26;16.00;;;15.60;;
595;SDS011;19946;49.306;11.350;2022-11-15T04:02:45;16.20;;;15.80;;
595;SDS011;19946;49.306;11.350;2022-11-15T04:06:04;15.90;;;15.50;;
595;SDS011;19946;49.306;11.350;2022-11-15T04:09:23;16.50;;;16.00;;
595;SDS011;19946;49.306;11.350;2022-11-15T04:12:43;16.90;;;16.40;;
595;SDS011;19946;49.306;11.350;2022-11-15T04:16:06;16.53;;;16.03;;
595;SDS011;19946;49.306;11.350;2022-11-15T04:19:25;16.33;;;15.83;;
595;SDS011;19946;49.306;11.350;2022-11-15T04:23:04;16.60;;;16.10;;
595;SDS011;19946;49.306;11.350;2022-11-15T04:26:43;16.90;;;16.40;;
595;SDS011;19946;49.306;11.350;2022-11-15T04:30:02;16.30;;;15.80;;
595;SDS011;19946;49.306;11.350;2022-11-15T04:33:21;15.43;;;15.03;;
595;SDS011;19946;49.306;11.350;2022-11-15T04:36:41;16.10;;;15.70;;
595;SDS011;19946;49.306;11.350;2022-11-15T04:40:18;16.40;;;15.90;;
595;SDS011;19946;49.306;11.350;2022-11-15T04:43:37;16.07;;;15.67;;
595;SDS011;19946;49.306;11.350;2022-11-15T04:46:56;16.40;;;15.90;;
595;SDS011;19946;49.306;11.350;2022-11-15T04:50:15;15.90;;;15.50;;
595;SDS011;19946;49.306;11.350;2022-11-15T04:53:34;16.70;;;16.20;;
595;SDS011;19946;49.306;11.350;2022-11-15T04:56:53;16.50;;;16.00;;
595;SDS011;19946;49.306;11.350;2022-11-15T05:00:13;16.90;;;16.40;;
595;SDS011;19946;49.306;11.350;2022-11-15T05:03:35;16.40;;;16.00;;
595;SDS011;19946;49.306;11.350;2022-11-15T05:07:13;16.00;;;15.60;;
595;SDS011;19946;49.306;11.350;2022-11-15T05:10:32;16.10;;;15.70;;
595;SDS011;19946;49.306;11.350;2022-11-15T05:13:52;15.80;;;15.40;;
595;SDS011;19946;49.306;11.350;2022-11-15T05:17:12;15.90;;;15.50;;
595;SDS011;19946;49.306;11.350;2022-11-15T05:20:32;17.43;;;16.93;;
595;SDS011;19946;49.306;11.350;2022-11-15T05:23:51;15.30;;;14.90;;
595;SDS011;19946;49.306;11.350;2022-11-15T05:27:10;15.30;;;14.90;;
595;SDS011;19946;49.306;11.350;2022-11-15T05:30:29;15.60;;;15.20;;
595;SDS011;19946;49.306;11.350;2022-11-15T05:33:49;15.20;;;14.80;;
595;SDS011;19946;49.306;11.350;2022-11-15T05:37:10;14.73;;;14.33;;
595;SDS011;19946;49.306;11.350;2022-11-15T05:40:28;15.43;;;15.03;;
595;SDS011;19946;49.306;11.350;2022-11-15T05:43:49;14.90;;;14.50;;
595;SDS011;19946;49.306;11.350;2022-11-15T05:47:13;15.00;;;14.60;;
595;SDS011;19946;49.306;11.350;2022-11-15T05:50:36;15.40;;;15.00;;
595;SDS011;19946;49.306;11.350;2022-11-15T05:54:00;15.77;;;15.37;;
595;SDS011;19946;49.306;11.350;2022-11-15T05:57:20;15.93;;;15.53;;
595;SDS011;19946;49.306;11.350;2022-11-15T06:00:39;16.20;;;15.80;;
595;SDS011;19946;49.306;11.350;2022-11-15T06:03:58;15.77;;;15.37;;
595;SDS011;19946;49.306;11.350;2022-11-15T06:07:19;15.23;;;14.83;;
595;SDS011;19946;49.306;11.350;2022-11-15T06:10:38;15.73;;;15.33;;
595;SDS011;19946;49.306;11.350;2022-11-15T06:13:57;15.30;;;14.90;;
595;SDS011;19946;49.306;11.350;2022-11-15T06:17:18;14.90;;;14.50;;
595;SDS011;19946;49.306;11.350;2022-11-15T06:20:47;15.20;;;14.80;;
595;SDS011;19946;49.306;11.350;2022-11-15T06:24:11;15.30;;;14.90;;
595;SDS011;19946;49.306;11.350;2022-11-15T06:27:30;15.50;;;15.10;;
595;SDS011;19946;49.306;11.350;2022-11-15T06:30:49;15.60;;;15.20;;
595;SDS011;19946;49.306;11.350;2022-11-15T06:34:09;15.60;;;15.20;;
595;SDS011;19946;49.306;11.350;2022-11-15T06:37:28;16.20;;;15.80;;
595;SDS011;19946;49.306;11.350;2022-11-15T06:40:53;15.30;;;14.90;;
595;SDS011;19946;49.306;11.350;2022-11-15T06:44:12;15.60;;;15.20;;
595;SDS011;19946;49.306;11.350;2022-11-15T06:47:31;16.30;;;15.90;;
595;SDS011;19946;49.306;11.350;2022-11-15T06:50:52;16.40;;;15.97;;
595;SDS011;19946;49.306;11.350;2022-11-15T06:54:12;15.70;;;15.30;;
595;SDS011;19946;49.306;11.350;2022-11-15T06:57:32;16.27;;;15.83;;
595;SDS011;19946;49.306;11.350;2022-11-15T07:00:51;15.90;;;15.50;;
595;SDS011;19946;49.306;11.350;2022-11-15T07:04:10;16.13;;;15.70;;
595;SDS011;19946;49.306;11.350;2022-11-15T07:07:29;16.40;;;15.97;;
595;SDS011;19946;49.306;11.350;2022-11-15T07:10:48;16.80;;;16.30;;
595;SDS011;19946;49.306;11.350;2022-11-15T07:14:07;16.80;;;16.30;;
595;SDS011;19946;49.306;11.350;2022-11-15T07:17:32;17.10;;;16.60;;
595;SDS011;19946;49.306;11.350;2022-11-15T07:21:03;16.70;;;16.20;;
595;SDS011;19946;49.306;11.350;2022-11-15T07:24:25;16.40;;;15.90;;
595;SDS011;19946;49.306;11.350;2022-11-15T07:27:53;16.70;;;16.20;;
595;SDS011;19946;49.306;11.350;2022-11-15T07:31:14;16.60;;;16.10;;
595;SDS011;19946;49.306;11.350;2022-11-15T07:34:33;17.00;;;16.50;;
595;SDS011;19946;49.306;11.350;2022-11-15T07:38:02;17.30;;;16.80;;
595;SDS011;19946;49.306;11.350;2022-11-15T07:41:21;17.07;;;16.57;;
595;SDS011;19946;49.306;11.350;2022-11-15T07:44:41;17.07;;;16.57;;
595;SDS011;19946;49.306;11.350;2022-11-15T07:48:00;17.23;;;16.73;;
595;SDS011;19946;49.306;11.350;2022-11-15T07:51:20;17.60;;;17.10;;
595;SDS011;19946;49.306;11.350;2022-11-15T07:54:41;18.10;;;17.60;;
595;SDS011;19946;49.306;11.350;2022-11-15T07:58:01;17.60;;;17.10;;
595;SDS011;19946;49.306;11.350;2022-11-15T08:01:21;17.27;;;16.77;;
595;SDS011;19946;49.306;11.350;2022-11-15T08:04:44;17.00;;;16.50;;
595;SDS011;19946;49.306;11.350;2022-11-15T08:08:04;17.40;;;16.90;;
595;SDS011;19946;49.306;11.350;2022-11-15T08:11:24;17.73;;;17.23;;
595;SDS011;19946;49.306;11.350;2022-11-15T08:14:44;17.90;;;17.40;;
595;SDS011;19946;49.306;11.350;2022-11-15T08:18:04;18.30;;;17.80;;
595;SDS011;19946;49.306;11.350;2022-11-15T08:21:34;18.77;;;18.20;;
595;SDS011;19946;49.306;11.350;2022-11-15T08:24:53;19.00;;;18.40;;
595;SDS011;19946;49.306;11.350;2022-11-15T08:28:12;18.20;;;17.70;;
595;SDS011;19946;49.306;11.350;2022-11-15T08:31:32;18.60;;;18.00;;
595;SDS011;19946;49.306;11.350;2022-11-15T08:34:51;18.60;;;18.00;;
595;SDS011;19946;49.306;11.350;2022-11-15T08:38:10;18.90;;;18.30;;
595;SDS011;19946;49.306;11.350;2022-11-15T08:41:31;19.80;;;19.20;;
595;SDS011;19946;49.306;11.350;2022-11-15T08:44:52;20.40;;;19.80;;
595;SDS011;19946;49.306;11.350;2022-11-15T08:48:10;20.10;;;19.50;;
595;SDS011;19946;49.306;11.350;2022-11-15T08:51:29;21.47;;;20.77;;
595;SDS011;19946;49.306;11.350;2022-11-15T08:54:48;21.50;;;20.80;;
595;SDS011;19946;49.306;11.350;2022-11-15T08:58:07;22.70;;;21.90;;
595;SDS011;19946;49.306;11.350;2022-11-15T09:01:26;23.40;;;22.60;;
595;SDS011;19946;49.306;11.350;2022-11-15T09:04:45;22.60;;;21.80;;
595;SDS011;19946;49.306;11.350;2022-11-15T09:08:14;23.10;;;22.30;;
595;SDS011;19946;49.306;11.350;2022-11-15T09:11:34;24.07;;;23.17;;
595;SDS011;19946;49.306;11.350;2022-11-15T09:14:57;23.90;;;23.10;;
595;SDS011;19946;49.306;11.350;2022-11-15T09:18:17;24.10;;;23.20;;
595;SDS011;19946;49.306;11.350;2022-11-15T09:21:43;24.10;;;23.20;;
595;SDS011;19946;49.306;11.350;2022-11-15T09:25:02;23.00;;;22.20;;
595;SDS011;19946;49.306;11.350;2022-11-15T09:28:21;22.90;;;22.10;;
595;SDS011;19946;49.306;11.350;2022-11-15T09:31:53;22.93;;;22.13;;
595;SDS011;19946;49.306;11.350;2022-11-15T09:35:12;23.20;;;22.40;;
595;SDS011;19946;49.306;11.350;2022-11-15T09:49:39;23.00;;;22.10;;
595;SDS011;19946;49.306;11.350;2022-11-15T09:52:50;22.80;;;22.00;;
595;SDS011;19946;49.306;11.350;2022-11-15T09:56:01;22.83;;;22.03;;
595;SDS011;19946;49.306;11.350;2022-11-15T09:59:27;22.83;;;22.03;;
595;SDS011;19946;49.306;11.350;2022-11-15T10:06:04;21.80;;;21.00;;
595;SDS011;19946;49.306;11.350;2022-11-15T10:13:01;23.97;;;23.17;;
595;SDS011;19946;49.306;11.350;2022-11-15T10:16:17;21.50;;;20.80;;
595;SDS011;19946;49.306;11.350;2022-11-15T10:23:11;21.90;;;21.10;;
595;SDS011;19946;49.306;11.350;2022-11-15T10:26:22;21.63;;;20.93;;
595;SDS011;19946;49.306;11.350;2022-11-15T10:29:24;21.43;;;20.73;;
595;SDS011;19946;49.306;11.350;2022-11-15T10:32:27;21.10;;;20.40;;
595;SDS011;19946;49.306;11.350;2022-11-15T10:35:29;20.60;;;19.90;;
595;SDS011;19946;49.306;11.350;2022-11-15T10:38:30;20.60;;;19.90;;
595;SDS011;19946;49.306;11.350;2022-11-15T10:41:31;20.20;;;19.50;;
595;SDS011;19946;49.306;11.350;2022-11-15T10:44:41;20.30;;;19.60;;
595;SDS011;19946;49.306;11.350;2022-11-15T10:47:43;20.30;;;19.60;;
595;SDS011;19946;49.306;11.350;2022-11-15T10:50:46;20.30;;;19.60;;
595;SDS011;19946;49.306;11.350;2022-11-15T10:53:48;20.20;;;19.50;;
595;SDS011;19946;49.306;11.350;2022-11-15T11:00:00;20.53;;;19.83;;
595;SDS011;19946;49.306;11.350;2022-11-15T11:03:05;19.90;;;19.30;;
595;SDS011;19946;49.306;11.350;2022-11-15T11:06:22;19.30;;;18.70;;
595;SDS011;19946;49.306;11.350;2022-11-15T11:09:37;20.40;;;19.80;;
595;SDS011;19946;49.306;11.350;2022-11-15T11:12:44;21.17;;;20.47;;
595;SDS011;19946;49.306;11.350;2022-11-15T11:15:45;20.80;;;20.10;;
595;SDS011;19946;49.306;11.350;2022-11-15T11:19:02;21.40;;;20.70;;
595;SDS011;19946;49.306;11.350;2022-11-15T11:25:56;20.70;;;20.00;;
595;SDS011;19946;49.306;11.350;2022-11-15T11:29:20;20.23;;;19.63;;
595;SDS011;19946;49.306;11.350;2022-11-15T11:39:25;20.83;;;20.13;;
595;SDS011;19946;49.306;11.350;2022-11-15T11:49:54;20.67;;;20.00;;
595;SDS011;19946;49.306;11.350;2022-11-15T11:53:01;20.17;;;19.57;;
595;SDS011;19946;49.306;11.350;2022-11-15T11:56:15;19.70;;;19.10;;
595;SDS011;19946;49.306;11.350;2022-11-15T12:06:12;20.00;;;19.40;;
595;SDS011;19946;49.306;11.350;2022-11-15T12:12:46;19.93;;;19.33;;
595;SDS011;19946;49.306;11.350;2022-11-15T12:16:11;19.70;;;19.10;;
595;SDS011;19946;49.306;11.350;2022-11-15T12:19:17;20.10;;;19.50;;
595;SDS011;19946;49.306;11.350;2022-11-15T12:25:50;19.90;;;19.30;;
595;SDS011;19946;49.306;11.350;2022-11-15T12:28:57;19.63;;;19.03;;
595;SDS011;19946;49.306;11.350;2022-11-15T12:32:01;19.40;;;18.80;;
595;SDS011;19946;49.306;11.350;2022-11-15T12:35:05;19.77;;;19.17;;
595;SDS011;19946;49.306;11.350;2022-11-15T12:38:49;19.80;;;19.20;;
595;SDS011;19946;49.306;11.350;2022-11-15T12:44:58;19.20;;;18.60;;
595;SDS011;19946;49.306;11.350;2022-11-15T12:51:19;20.00;;;19.40;;
595;SDS011;19946;49.306;11.350;2022-11-15T12:57:25;19.67;;;19.07;;
595;SDS011;19946;49.306;11.350;2022-11-15T13:03:32;18.90;;;18.30;;
595;SDS011;19946;49.306;11.350;2022-11-15T13:06:38;19.00;;;18.40;;
595;SDS011;19946;49.306;11.350;2022-11-15T13:19:01;18.20;;;17.70;;
595;SDS011;19946;49.306;11.350;2022-11-15T13:22:04;18.50;;;18.00;;
595;SDS011;19946;49.306;11.350;2022-11-15T13:28:44;18.00;;;17.50;;
595;SDS011;19946;49.306;11.350;2022-11-15T13:31:47;18.30;;;17.80;;
595;SDS011;19946;49.306;11.350;2022-11-15T13:34:49;17.97;;;17.47;;
595;SDS011;19946;49.306;11.350;2022-11-15T13:37:53;18.10;;;17.60;;
595;SDS011;19946;49.306;11.350;2022-11-15T13:40:57;18.43;;;17.93;;
595;SDS011;19946;49.306;11.350;2022-11-15T13:43:59;18.00;;;17.50;;
595;SDS011;19946;49.306;11.350;2022-11-15T13:47:02;17.90;;;17.40;;
595;SDS011;19946;49.306;11.350;2022-11-15T13:50:03;17.40;;;16.90;;
595;SDS011;19946;49.306;11.350;2022-11-15T13:53:04;17.70;;;17.20;;
595;SDS011;19946;49.306;11.350;2022-11-15T13:56:06;17.80;;;17.30;;
595;SDS011;19946;49.306;11.350;2022-11-15T13:59:14;18.00;;;17.50;;
595;SDS011;19946;49.306;11.350;2022-11-15T14:02:26;18.20;;;17.70;;
595;SDS011;19946;49.306;11.350;2022-11-15T14:05:29;17.30;;;16.80;;
595;SDS011;19946;49.306;11.350;2022-11-15T14:08:30;17.20;;;16.70;;
595;SDS011;19946;49.306;11.350;2022-11-15T14:11:30;17.07;;;16.57;;
595;SDS011;19946;49.306;11.350;2022-11-15T14:14:32;16.53;;;16.13;;
595;SDS011;19946;49.306;11.350;2022-11-15T14:17:34;16.60;;;16.20;;
595;SDS011;19946;49.306;11.350;2022-11-15T14:20:37;16.50;;;16.10;;
595;SDS011;19946;49.306;11.350;2022-11-15T14:23:39;16.30;;;15.90;;
595;SDS011;19946;49.306;11.350;2022-11-15T14:26:40;16.30;;;15.90;;
595;SDS011;19946;49.306;11.350;2022-11-15T14:29:41;16.27;;;15.87;;
595;SDS011;19946;49.306;11.350;2022-11-15T14:35:46;16.20;;;15.80;;
595;SDS011;19946;49.306;11.350;2022-11-15T14:38:47;15.80;;;15.40;;
595;SDS011;19946;49.306;11.350;2022-11-15T14:41:47;16.00;;;15.60;;
595;SDS011;19946;49.306;11.350;2022-11-15T14:44:48;16.43;;;16.03;;
595;SDS011;19946;49.306;11.350;2022-11-15T14:47:49;16.00;;;15.60;;
595;SDS011;19946;49.306;11.350;2022-11-15T14:50:49;15.90;;;15.50;;
595;SDS011;19946;49.306;11.350;2022-11-15T14:53:50;15.60;;;15.20;;
595;SDS011;19946;49.306;11.350;2022-11-15T14:56:51;15.60;;;15.20;;
595;SDS011;19946;49.306;11.350;2022-11-15T14:59:51;16.00;;;15.60;;
595;SDS011;19946;49.306;11.350;2022-11-15T15:02:53;15.80;;;15.40;;
595;SDS011;19946;49.306;11.350;2022-11-15T15:05:54;15.90;;;15.50;;
595;SDS011;19946;49.306;11.350;2022-11-15T15:08:54;16.00;;;15.60;;
595;SDS011;19946;49.306;11.350;2022-11-15T15:11:55;15.40;;;15.00;;
595;SDS011;19946;49.306;11.350;2022-11-15T15:14:55;14.70;;;14.30;;
595;SDS011;19946;49.306;11.350;2022-11-15T15:17:56;13.80;;;13.50;;
595;SDS011;19946;49.306;11.350;2022-11-15T15:20:57;15.10;;;14.70;;
595;SDS011;19946;49.306;11.350;2022-11-15T15:24:08;12.20;;;11.90;;
595;SDS011;19946;49.306;11.350;2022-11-15T15:27:14;13.67;;;13.37;;
595;SDS011;19946;49.306;11.350;2022-11-15T15:30:15;13.60;;;13.30;;
595;SDS011;19946;49.306;11.350;2022-11-15T15:33:15;13.40;;;13.10;;
595;SDS011;19946;49.306;11.350;2022-11-15T15:36:17;13.70;;;13.40;;
595;SDS011;19946;49.306;11.350;2022-11-15T15:39:18;12.90;;;12.60;;
595;SDS011;19946;49.306;11.350;2022-11-15T15:42:19;13.63;;;13.33;;
595;SDS011;19946;49.306;11.350;2022-11-15T15:45:21;13.60;;;13.30;;
595;SDS011;19946;49.306;11.350;2022-11-15T15:48:22;12.03;;;11.83;;
595;SDS011;19946;49.306;11.350;2022-11-15T15:51:22;13.00;;;12.70;;
595;SDS011;19946;49.306;11.350;2022-11-15T15:54:22;13.00;;;12.70;;
595;SDS011;19946;49.306;11.350;2022-11-15T15:57:23;13.80;;;13.50;;
595;SDS011;19946;49.306;11.350;2022-11-15T16:00:24;13.50;;;13.20;;
595;SDS011;19946;49.306;11.350;2022-11-15T16:03:25;15.87;;;15.47;;
595;SDS011;19946;49.306;11.350;2022-11-15T16:06:34;12.90;;;12.60;;
595;SDS011;19946;49.306;11.350;2022-11-15T16:09:36;12.47;;;12.17;;
595;SDS011;19946;49.306;11.350;2022-11-15T16:12:55;12.40;;;12.10;;
595;SDS011;19946;49.306;11.350;2022-11-15T16:15:57;12.97;;;12.67;;
595;SDS011;19946;49.306;11.350;2022-11-15T16:18:57;12.60;;;12.30;;
595;SDS011;19946;49.306;11.350;2022-11-15T16:21:57;12.60;;;12.30;;
595;SDS011;19946;49.306;11.350;2022-11-15T16:24:58;14.40;;;14.10;;
595;SDS011;19946;49.306;11.350;2022-11-15T16:27:58;12.70;;;12.40;;
595;SDS011;19946;49.306;11.350;2022-11-15T16:31:02;12.70;;;12.40;;
595;SDS011;19946;49.306;11.350;2022-11-15T16:34:10;12.47;;;12.17;;
595;SDS011;19946;49.306;11.350;2022-11-15T16:37:28;12.40;;;12.10;;
595;SDS011;19946;49.306;11.350;2022-11-15T16:40:30;12.80;;;12.50;;
595;SDS011;19946;49.306;11.350;2022-11-15T16:43:33;12.80;;;12.50;;
595;SDS011;19946;49.306;11.350;2022-11-15T16:46:33;13.10;;;12.80;;
595;SDS011;19946;49.306;11.350;2022-11-15T16:49:34;13.43;;;13.13;;
595;SDS011;19946;49.306;11.350;2022-11-15T16:52:34;13.37;;;13.07;;
595;SDS011;19946;49.306;11.350;2022-11-15T16:55:34;12.80;;;12.50;;
595;SDS011;19946;49.306;11.350;2022-11-15T16:58:35;12.90;;;12.60;;
595;SDS011;19946;49.306;11.350;2022-11-15T17:01:36;12.30;;;12.00;;
595;SDS011;19946;49.306;11.350;2022-11-15T17:04:45;12.30;;;12.00;;
595;SDS011;19946;49.306;11.350;2022-11-15T17:07:47;11.93;;;11.73;;
595;SDS011;19946;49.306;11.350;2022-11-15T17:10:49;12.60;;;12.30;;
595;SDS011;19946;49.306;11.350;2022-11-15T17:13:50;12.63;;;12.33;;
595;SDS011;19946;49.306;11.350;2022-11-15T17:16:50;12.70;;;12.40;;
595;SDS011;19946;49.306;11.350;2022-11-15T17:19:51;13.10;;;12.80;;
595;SDS011;19946;49.306;11.350;2022-11-15T17:22:52;12.77;;;12.47;;
595;SDS011;19946;49.306;11.350;2022-11-15T17:26:02;12.10;;;11.90;;
595;SDS011;19946;49.306;11.350;2022-11-15T17:29:04;12.40;;;12.10;;
595;SDS011;19946;49.306;11.350;2022-11-15T17:32:07;12.93;;;12.63;;
595;SDS011;19946;49.306;11.350;2022-11-15T17:35:08;13.00;;;12.70;;
595;SDS011;19946;49.306;11.350;2022-11-15T17:38:10;12.90;;;12.60;;
595;SDS011;19946;49.306;11.350;2022-11-15T17:41:11;12.60;;;12.30;;
595;SDS011;19946;49.306;11.350;2022-11-15T17:44:13;12.63;;;12.33;;
595;SDS011;19946;49.306;11.350;2022-11-15T17:47:14;13.37;;;13.07;;
595;SDS011;19946;49.306;11.350;2022-11-15T17:50:14;12.90;;;12.60;;
595;SDS011;19946;49.306;11.350;2022-11-15T17:53:16;13.57;;;13.27;;
595;SDS011;19946;49.306;11.350;2022-11-15T17:56:17;12.80;;;12.50;;
595;SDS011;19946;49.306;11.350;2022-11-15T17:59:20;12.63;;;12.33;;
595;SDS011;19946;49.306;11.350;2022-11-15T18:02:20;13.37;;;13.07;;
595;SDS011;19946;49.306;11.350;2022-11-15T18:05:20;12.90;;;12.60;;
595;SDS011;19946;49.306;11.350;2022-11-15T18:08:21;13.27;;;12.97;;
595;SDS011;19946;49.306;11.350;2022-11-15T18:14:27;12.80;;;12.50;;
595;SDS011;19946;49.306;11.350;2022-11-15T18:17:27;12.83;;;12.53;;
595;SDS011;19946;49.306;11.350;2022-11-15T18:20:28;12.73;;;12.43;;
595;SDS011;19946;49.306;11.350;2022-11-15T18:23:28;12.87;;;12.57;;
595;SDS011;19946;49.306;11.350;2022-11-15T18:26:29;12.57;;;12.27;;
595;SDS011;19946;49.306;11.350;2022-11-15T18:29:30;12.70;;;12.40;;
595;SDS011;19946;49.306;11.350;2022-11-15T18:32:31;11.90;;;11.70;;
595;SDS011;19946;49.306;11.350;2022-11-15T18:35:32;12.20;;;11.90;;
595;SDS011;19946;49.306;11.350;2022-11-15T18:38:32;12.60;;;12.30;;
595;SDS011;19946;49.306;11.350;2022-11-15T18:41:33;12.50;;;12.20;;
595;SDS011;19946;49.306;11.350;2022-11-15T18:44:34;13.00;;;12.70;;
595;SDS011;19946;49.306;11.350;2022-11-15T18:47:35;12.70;;;12.40;;
595;SDS011;19946;49.306;11.350;2022-11-15T18:50:36;12.93;;;12.63;;
595;SDS011;19946;49.306;11.350;2022-11-15T18:53:37;13.07;;;12.77;;
595;SDS011;19946;49.306;11.350;2022-11-15T18:56:38;13.00;;;12.70;;
595;SDS011;19946;49.306;11.350;2022-11-15T18:59:39;13.90;;;13.60;;
595;SDS011;19946;49.306;11.350;2022-11-15T19:02:39;12.93;;;12.63;;
595;SDS011;19946;49.306;11.350;2022-11-15T19:05:39;12.53;;;12.23;;
595;SDS011;19946;49.306;11.350;2022-11-15T19:08:40;12.83;;;12.53;;
595;SDS011;19946;49.306;11.350;2022-11-15T19:11:42;14.17;;;13.87;;
595;SDS011;19946;49.306;11.350;2022-11-15T19:14:44;12.10;;;11.80;;
595;SDS011;19946;49.306;11.350;2022-11-15T19:17:45;12.40;;;12.10;;
595;SDS011;19946;49.306;11.350;2022-11-15T19:20:46;12.50;;;12.20;;
595;SDS011;19946;49.306;11.350;2022-11-15T19:23:46;12.30;;;12.00;;
595;SDS011;19946;49.306;11.350;2022-11-15T19:26:47;12.50;;;12.20;;
595;SDS011;19946;49.306;11.350;2022-11-15T19:29:47;12.00;;;11.73;;
595;SDS011;19946;49.306;11.350;2022-11-15T19:32:47;11.80;;;11.60;;
595;SDS011;19946;49.306;11.350;2022-11-15T19:35:48;12.00;;;11.80;;
595;SDS011;19946;49.306;11.350;2022-11-15T19:38:48;11.93;;;11.70;;
595;SDS011;19946;49.306;11.350;2022-11-15T19:41:49;12.30;;;12.00;;
595;SDS011;19946;49.306;11.350;2022-11-15T19:44:49;12.50;;;12.20;;
595;SDS011;19946;49.306;11.350;2022-11-15T19:47:50;11.80;;;11.60;;
595;SDS011;19946;49.306;11.350;2022-11-15T19:50:50;12.20;;;11.90;;
595;SDS011;19946;49.306;11.350;2022-11-15T19:53:54;12.33;;;12.03;;
595;SDS011;19946;49.306;11.350;2022-11-15T19:56:56;12.70;;;12.40;;
595;SDS011;19946;49.306;11.350;2022-11-15T19:59:57;12.83;;;12.53;;
595;SDS011;19946;49.306;11.350;2022-11-15T20:02:57;12.83;;;12.53;;
595;SDS011;19946;49.306;11.350;2022-11-15T20:09:06;11.70;;;11.50;;
595;SDS011;19946;49.306;11.350;2022-11-15T20:12:08;12.10;;;11.80;;
595;SDS011;19946;49.306;11.350;2022-11-15T20:15:10;12.30;;;12.00;;
595;SDS011;19946;49.306;11.350;2022-11-15T20:18:10;11.50;;;11.30;;
595;SDS011;19946;49.306;11.350;2022-11-15T20:21:10;12.20;;;11.90;;
595;SDS011;19946;49.306;11.350;2022-11-15T20:24:11;12.10;;;11.80;;
595;SDS011;19946;49.306;11.350;2022-11-15T20:27:11;12.30;;;12.00;;
595;SDS011;19946;49.306;11.350;2022-11-15T20:30:12;12.90;;;12.60;;
595;SDS011;19946;49.306;11.350;2022-11-15T20:33:12;12.90;;;12.60;;
595;SDS011;19946;49.306;11.350;2022-11-15T20:36:14;12.77;;;12.47;;
595;SDS011;19946;49.306;11.350;2022-11-15T20:39:15;12.90;;;12.60;;